CheckWX is a tool to help pilots better visualize weather data.  It is not intended as a substitute for an official pre-flight weather briefing.

12:22:49 UTC

ZBSJ TAF
Shijiazhuang Daguocun International Airport
Shijiazhuang, China
TAF ZBSJ 220711Z 2212/2312 33004MPS CAVOK TX16/2306Z TN00/2221Z

Mar-22@
12:00 UTC

Mar-22 @ 12:00 UTC

Mar-23@
12:00 UTC

Mar-23 @ 12:00 UTC

TAF ZBSJ 220711Z 2212/2312 33004MPS CAVOK TX16/2306Z TN00/2221Z
Wind
  • 330° at 8 KTS
Cloud Levels
  • No significant clouds